ACA1840 CYUL-CYYZ
Flight info
| Callsign | ACA1840 |
|---|---|
| Flight time | N/A |
| Altitude | 36000 |
| Route | BOBKI DCT MELTI DCT TORNI RAGID6 |
| Aircraft | A20N/M-SDE2E3FGHIRWXY/LB1 |
Departure
| Time | 2026-05-06 23:13 |
|---|---|
| Airport | Montreal / Pierre Elliott Trudeau International Airport (CYUL) |
Arrival
| Time | N/A |
|---|---|
| Airport | Toronto Pearson International Airport (CYYZ) |
| Time | Latitude | Longitude | Altitude | Speed | Heading |
|---|---|---|---|---|---|
| 2026-05-06 22:43 | 45.45886 | -73.74492 | 104 ft | 0 kts | 178° |
| 2026-05-06 23:02 | 45.45887 | -73.74492 | 105 ft | 1 kts | 178° |
| 2026-05-06 23:02 | 45.45912 | -73.74493 | 104 ft | 4 kts | 178° |
| 2026-05-06 23:02 | 45.45923 | -73.74494 | 103 ft | 1 kts | 178° |
| 2026-05-06 23:03 | 45.45930 | -73.74494 | 104 ft | 1 kts | 178° |
| 2026-05-06 23:04 | 45.45937 | -73.74495 | 103 ft | 1 kts | 165° |
| 2026-05-06 23:04 | 45.45945 | -73.74498 | 102 ft | 1 kts | 137° |
| 2026-05-06 23:04 | 45.45950 | -73.74507 | 102 ft | 1 kts | 98° |
| 2026-05-06 23:04 | 45.45950 | -73.74518 | 102 ft | 1 kts | 72° |
| 2026-05-06 23:05 | 45.45950 | -73.74521 | 102 ft | 0 kts | 67° |
| 2026-05-06 23:06 | 45.45952 | -73.74515 | 102 ft | 4 kts | 66° |
| 2026-05-06 23:06 | 45.46005 | -73.74411 | 102 ft | 19 kts | 53° |
| 2026-05-06 23:07 | 45.46102 | -73.74248 | 103 ft | 21 kts | 47° |
| 2026-05-06 23:07 | 45.46149 | -73.74069 | 105 ft | 20 kts | 69° |
| 2026-05-06 23:07 | 45.46257 | -73.73905 | 105 ft | 25 kts | 44° |
| 2026-05-06 23:07 | 45.46378 | -73.73745 | 107 ft | 25 kts | 43° |
| 2026-05-06 23:08 | 45.46515 | -73.73564 | 109 ft | 29 kts | 43° |
| 2026-05-06 23:08 | 45.46673 | -73.73356 | 110 ft | 33 kts | 42° |
| 2026-05-06 23:08 | 45.46848 | -73.73130 | 112 ft | 33 kts | 43° |
| 2026-05-06 23:08 | 45.46993 | -73.72933 | 115 ft | 27 kts | 44° |
| 2026-05-06 23:09 | 45.47112 | -73.72779 | 116 ft | 25 kts | 39° |
| 2026-05-06 23:09 | 45.47253 | -73.72596 | 117 ft | 30 kts | 42° |
| 2026-05-06 23:09 | 45.47416 | -73.72382 | 117 ft | 34 kts | 42° |
| 2026-05-06 23:09 | 45.47570 | -73.72181 | 118 ft | 30 kts | 43° |
| 2026-05-06 23:10 | 45.47724 | -73.71979 | 116 ft | 24 kts | 41° |
| 2026-05-06 23:10 | 45.47806 | -73.71853 | 122 ft | 15 kts | 73° |
| 2026-05-06 23:10 | 45.47767 | -73.71749 | 120 ft | 0 kts | 131° |
| 2026-05-06 23:11 | 45.47766 | -73.71748 | 120 ft | 1 kts | 131° |
| 2026-05-06 23:11 | 45.47765 | -73.71745 | 120 ft | 0 kts | 131° |
| 2026-05-06 23:12 | 45.47760 | -73.71737 | 119 ft | 6 kts | 131° |
| 2026-05-06 23:12 | 45.47701 | -73.71665 | 122 ft | 14 kts | 154° |
| 2026-05-06 23:12 | 45.47634 | -73.71694 | 122 ft | 1 kts | 219° |
| 2026-05-06 23:13 | 45.47382 | -73.72024 | 116 ft | 96 kts | 223° |
| 2026-05-06 23:13 | 45.46710 | -73.72909 | 144 ft | 160 kts | 223° |
| 2026-05-06 23:13 | 45.45880 | -73.74049 | 863 ft | 173 kts | 224° |
| 2026-05-06 23:13 | 45.44940 | -73.75249 | 1875 ft | 180 kts | 225° |
| 2026-05-06 23:14 | 45.43942 | -73.76444 | 2963 ft | 197 kts | 224° |
| 2026-05-06 23:14 | 45.42825 | -73.77761 | 3962 ft | 214 kts | 223° |
| 2026-05-06 23:14 | 45.41739 | -73.79020 | 5394 ft | 220 kts | 224° |
| 2026-05-06 23:14 | 45.40572 | -73.80569 | 5927 ft | 236 kts | 231° |
| 2026-05-06 23:15 | 45.39487 | -73.82270 | 7158 ft | 234 kts | 231° |
| 2026-05-06 23:15 | 45.38435 | -73.84042 | 7682 ft | 235 kts | 236° |
| 2026-05-06 23:15 | 45.37513 | -73.85955 | 8019 ft | 232 kts | 240° |
| 2026-05-06 23:15 | 45.36786 | -73.87992 | 8389 ft | 232 kts | 248° |
| 2026-05-06 23:16 | 45.36615 | -73.90070 | 10121 ft | 187 kts | 273° |
| 2026-05-06 23:16 | 45.37070 | -73.91610 | 12510 ft | 156 kts | 291° |
| 2026-05-06 23:16 | 45.37861 | -73.92723 | 13557 ft | 191 kts | 304° |
| 2026-05-06 23:16 | 45.38949 | -73.94406 | 12603 ft | 271 kts | 294° |
| 2026-05-06 23:17 | 45.39868 | -73.96889 | 11601 ft | 288 kts | 284° |
| 2026-05-06 23:17 | 45.40519 | -73.99513 | 11371 ft | 271 kts | 280° |
| 2026-05-06 23:17 | 45.40966 | -74.01998 | 11374 ft | 246 kts | 273° |
| 2026-05-06 23:17 | 45.41103 | -74.04358 | 11188 ft | 231 kts | 261° |
| 2026-05-06 23:18 | 45.40598 | -74.06116 | 13011 ft | 163 kts | 238° |
| 2026-05-06 23:18 | 45.39973 | -74.07199 | 15051 ft | 125 kts | 230° |
| 2026-05-06 23:18 | 45.39348 | -74.08114 | 15821 ft | 144 kts | 239° |
| 2026-05-06 23:18 | 45.38978 | -74.09589 | 16195 ft | 178 kts | 256° |
| 2026-05-06 23:19 | 45.38953 | -74.11594 | 16185 ft | 233 kts | 270° |
| 2026-05-06 23:19 | 45.39322 | -74.14069 | 16153 ft | 264 kts | 278° |
| 2026-05-06 23:19 | 45.39859 | -74.16573 | 16229 ft | 265 kts | 278° |
| 2026-05-06 23:19 | 45.40329 | -74.19097 | 16244 ft | 263 kts | 275° |
| 2026-05-06 23:20 | 45.40669 | -74.21595 | 16427 ft | 261 kts | 273° |
| 2026-05-06 23:20 | 45.40940 | -74.24161 | 16743 ft | 260 kts | 266° |
| 2026-05-06 23:20 | 45.40863 | -74.26751 | 17387 ft | 263 kts | 261° |
| 2026-05-06 23:20 | 45.40763 | -74.29408 | 18232 ft | 279 kts | 264° |
| 2026-05-06 23:21 | 45.40791 | -74.32306 | 18558 ft | 307 kts | 268° |
| 2026-05-06 23:21 | 45.40968 | -74.35455 | 18984 ft | 328 kts | 270° |
| 2026-05-06 23:21 | 45.41231 | -74.38703 | 19876 ft | 332 kts | 270° |
| 2026-05-06 23:21 | 45.41332 | -74.41983 | 20806 ft | 333 kts | 264° |
| 2026-05-06 23:22 | 45.41168 | -74.45278 | 21675 ft | 335 kts | 259° |
| 2026-05-06 23:22 | 45.40732 | -74.48547 | 22559 ft | 337 kts | 253° |
| 2026-05-06 23:22 | 45.40175 | -74.51819 | 23443 ft | 342 kts | 254° |
| 2026-05-06 23:22 | 45.39621 | -74.55128 | 24188 ft | 346 kts | 254° |
| 2026-05-06 23:23 | 45.39064 | -74.58476 | 24929 ft | 349 kts | 254° |
| 2026-05-06 23:23 | 45.38500 | -74.61851 | 25647 ft | 353 kts | 254° |
| 2026-05-06 23:23 | 45.37929 | -74.65262 | 26354 ft | 356 kts | 254° |
| 2026-05-06 23:23 | 45.37350 | -74.68706 | 27028 ft | 360 kts | 254° |
| 2026-05-06 23:24 | 45.36770 | -74.72151 | 27648 ft | 364 kts | 253° |
| 2026-05-06 23:24 | 45.36176 | -74.75669 | 28280 ft | 368 kts | 253° |
| 2026-05-06 23:24 | 45.35567 | -74.79267 | 28892 ft | 371 kts | 253° |
| 2026-05-06 23:24 | 45.34959 | -74.82855 | 29455 ft | 375 kts | 253° |
| 2026-05-06 23:25 | 45.34342 | -74.86484 | 29985 ft | 379 kts | 253° |
| 2026-05-06 23:25 | 45.33726 | -74.90089 | 30526 ft | 381 kts | 253° |
| 2026-05-06 23:25 | 45.33096 | -74.93754 | 31119 ft | 382 kts | 254° |
| 2026-05-06 23:25 | 45.32487 | -74.97291 | 31780 ft | 380 kts | 254° |
| 2026-05-06 23:26 | 45.31860 | -75.00922 | 32521 ft | 376 kts | 255° |
| 2026-05-06 23:26 | 45.31238 | -75.04517 | 33293 ft | 372 kts | 255° |
| 2026-05-06 23:26 | 45.30622 | -75.08062 | 34019 ft | 368 kts | 256° |
| 2026-05-06 23:26 | 45.30008 | -75.11593 | 34502 ft | 369 kts | 256° |
| 2026-05-06 23:27 | 45.29391 | -75.15141 | 34895 ft | 371 kts | 256° |
| 2026-05-06 23:27 | 45.28771 | -75.18700 | 35327 ft | 372 kts | 256° |
| 2026-05-06 23:27 | 45.28161 | -75.22200 | 36405 ft | 341 kts | 256° |
| 2026-05-06 23:27 | 45.27680 | -75.24949 | 39770 ft | 242 kts | 255° |
| 2026-05-06 23:28 | 45.27310 | -75.26955 | 41789 ft | 195 kts | 255° |
| 2026-05-06 23:28 | 45.26980 | -75.29033 | 40469 ft | 247 kts | 259° |
| 2026-05-06 23:28 | 45.26722 | -75.31771 | 38953 ft | 309 kts | 262° |
| 2026-05-06 23:28 | 45.26503 | -75.35127 | 36829 ft | 375 kts | 264° |
| 2026-05-06 23:29 | 45.26391 | -75.38979 | 35931 ft | 406 kts | 266° |
| 2026-05-06 23:29 | 45.26354 | -75.42965 | 36262 ft | 403 kts | 267° |
| 2026-05-06 23:29 | 45.26164 | -75.46927 | 36421 ft | 401 kts | 261° |
| 2026-05-06 23:29 | 45.25762 | -75.50732 | 36395 ft | 380 kts | 259° |
| 2026-05-06 23:30 | 45.25727 | -75.51028 | 36384 ft | 378 kts | 259° |